createdAt,value
2017-04-18T00:00:54.648Z,1012.85
2017-04-18T00:02:04.903Z,1012.88
2017-04-18T00:03:15.157Z,1012.83
2017-04-18T00:04:25.410Z,1012.88
2017-04-18T00:05:35.668Z,1012.86
2017-04-18T00:06:45.291Z,1012.83
2017-04-18T00:07:55.544Z,1012.87
2017-04-18T00:09:05.798Z,1012.86
2017-04-18T00:10:16.054Z,1012.89
2017-04-18T00:11:26.494Z,1012.86
2017-04-18T00:12:36.122Z,1012.87
2017-04-18T00:13:46.376Z,1012.89
2017-04-18T00:14:56.851Z,1012.87
2017-04-18T00:16:07.100Z,1012.86
2017-04-18T00:17:17.299Z,1012.87
2017-04-18T00:18:27.235Z,1012.92
2017-04-18T00:19:37.496Z,1012.88
2017-04-18T00:20:47.748Z,1012.95
2017-04-18T00:21:57.689Z,1012.91
2017-04-18T00:23:07.941Z,1012.94
2017-04-18T00:24:18.224Z,1012.91
2017-04-18T00:25:27.849Z,1012.93
2017-04-18T00:26:38.100Z,1012.89
2017-04-18T00:27:48.355Z,1012.91
2017-04-18T00:28:58.298Z,1012.95
2017-04-18T00:30:08.242Z,1012.92
2017-04-18T00:31:18.492Z,1012.93
2017-04-18T00:32:28.746Z,1012.93
2017-04-18T00:33:38.999Z,1012.91
2017-04-18T00:34:48.625Z,1012.95
2017-04-18T00:35:58.879Z,1012.93
2017-04-18T00:37:08.508Z,1012.96
2017-04-18T00:38:18.449Z,1012.95
2017-04-18T00:39:28.393Z,1013
2017-04-18T00:40:38.648Z,1012.98
2017-04-18T00:41:48.583Z,1013.01
2017-04-18T00:42:58.523Z,1013.03
2017-04-18T00:44:08.151Z,1013.01
2017-04-18T00:45:18.094Z,1012.98
2017-04-18T00:46:28.345Z,1013.03
2017-04-18T00:47:38.301Z,1013.06
2017-04-18T00:48:48.246Z,1013.01
2017-04-18T00:49:58.503Z,1013.02
2017-04-18T00:51:08.818Z,1013.02
2017-04-18T00:52:18.755Z,1013.05
2017-04-18T00:53:29.422Z,1013.04
2017-04-18T00:54:39.362Z,1013.04
2017-04-18T00:55:49.614Z,1013.04
2017-04-18T00:56:59.866Z,1013.05
2017-04-18T00:58:09.808Z,1013.07
2017-04-18T00:59:20.093Z,1013.05
2017-04-18T01:00:30.346Z,1013.02
2017-04-18T01:01:40.598Z,1013.04
2017-04-18T01:02:50.853Z,1013.03
2017-04-18T01:04:01.122Z,1013.06
2017-04-18T01:05:11.387Z,1013.06
2017-04-18T01:06:21.645Z,1013.05
2017-04-18T01:07:31.584Z,1013.04
2017-04-18T01:08:41.838Z,1013.07
2017-04-18T01:09:52.094Z,1013.06
2017-04-18T01:11:02.355Z,1013.06
2017-04-18T01:12:11.982Z,1013.05
2017-04-18T01:13:22.242Z,1013.13
2017-04-18T01:14:32.495Z,1013.07
2017-04-18T01:15:42.747Z,1013.1
2017-04-18T01:16:52.695Z,1013.1
2017-04-18T01:18:02.634Z,1013.12
2017-04-18T01:19:12.890Z,1013.1
2017-04-18T01:20:22.517Z,1013.15
2017-04-18T01:21:32.458Z,1013.13
2017-04-18T01:22:42.704Z,1013.14
2017-04-18T01:23:52.649Z,1013.14
2017-04-18T01:25:02.909Z,1013.15
2017-04-18T01:26:12.532Z,1013.13
2017-04-18T01:27:22.722Z,1013.18
2017-04-18T01:28:33.313Z,1013.17
2017-04-18T01:29:43.288Z,1013.15
2017-04-18T01:30:53.554Z,1013.2
2017-04-18T01:32:03.914Z,1013.2
2017-04-18T01:33:14.054Z,1013.17
2017-04-18T01:34:24.305Z,1013.19
2017-04-18T01:35:34.240Z,1013.22
2017-04-18T01:36:44.489Z,1013.21
2017-04-18T01:37:54.429Z,1013.24
2017-04-18T01:39:04.682Z,1013.27
2017-04-18T01:40:14.956Z,1013.27
2017-04-18T01:41:25.216Z,1013.26
2017-04-18T01:42:35.157Z,1013.28
2017-04-18T01:43:45.105Z,1013.28
2017-04-18T01:44:55.357Z,1013.26
2017-04-18T01:46:05.286Z,1013.27
2017-04-18T01:47:14.903Z,1013.3
2017-04-18T01:48:24.517Z,1013.28
2017-04-18T01:49:34.763Z,1013.32
2017-04-18T01:50:45.006Z,1013.34
2017-04-18T01:51:55.243Z,1013.33
2017-04-18T01:53:05.170Z,1013.38
2017-04-18T01:54:15.412Z,1013.34
2017-04-18T01:55:25.656Z,1013.37
2017-04-18T01:56:35.591Z,1013.37
2017-04-18T01:57:45.527Z,1013.41
2017-04-18T01:58:55.776Z,1013.39
2017-04-18T02:00:06.019Z,1013.4
2017-04-18T02:01:15.634Z,1013.42
2017-04-18T02:02:25.259Z,1013.46
2017-04-18T02:03:35.496Z,1013.47
2017-04-18T02:04:45.427Z,1013.48
2017-04-18T02:05:55.345Z,1013.46
2017-04-18T02:07:05.558Z,1013.45
2017-04-18T02:08:15.804Z,1013.48
2017-04-18T02:09:26.039Z,1013.48
2017-04-18T02:10:35.650Z,1013.48
2017-04-18T02:11:46.025Z,1013.49
2017-04-18T02:12:56.269Z,1013.48
2017-04-18T02:14:06.747Z,1013.5
2017-04-18T02:15:16.364Z,1013.53
2017-04-18T02:16:26.601Z,1013.5
2017-04-18T02:17:36.214Z,1013.54
2017-04-18T02:18:46.462Z,1013.51
2017-04-18T02:19:56.082Z,1013.56
2017-04-18T02:21:05.736Z,1013.54
2017-04-18T02:22:15.970Z,1013.54
2017-04-18T02:23:26.213Z,1013.55
2017-04-18T02:24:36.448Z,1013.6
2017-04-18T02:25:46.703Z,1013.58
2017-04-18T02:26:56.635Z,1013.59
2017-04-18T02:28:06.576Z,1013.59
2017-04-18T02:29:16.498Z,1013.61
2017-04-18T02:30:26.433Z,1013.62
2017-04-18T02:31:36.363Z,1013.6
2017-04-18T02:32:46.644Z,1013.57
2017-04-18T02:33:56.879Z,1013.58
2017-04-18T02:35:07.128Z,1013.58
2017-04-18T02:36:17.057Z,1013.62
2017-04-18T02:37:27.298Z,1013.59
2017-04-18T02:38:37.229Z,1013.62
2017-04-18T02:39:47.169Z,1013.64
2017-04-18T02:40:57.098Z,1013.63
2017-04-18T02:42:07.047Z,1013.63
2017-04-18T02:43:17.288Z,1013.64
2017-04-18T02:44:27.212Z,1013.62
2017-04-18T02:45:37.142Z,1013.62
2017-04-18T02:46:47.380Z,1013.59
2017-04-18T02:47:57.619Z,1013.64
2017-04-18T02:49:07.885Z,1013.66
2017-04-18T02:50:18.127Z,1013.66
2017-04-18T02:51:28.367Z,1013.67
2017-04-18T02:52:38.623Z,1013.69
2017-04-18T02:53:48.241Z,1013.71
2017-04-18T02:54:58.487Z,1013.7
2017-04-18T02:56:08.727Z,1013.7
2017-04-18T02:57:19.185Z,1013.77
2017-04-18T02:58:28.802Z,1013.75
2017-04-18T02:59:39.053Z,1013.76
2017-04-18T03:00:48.994Z,1013.79
2017-04-18T03:01:59.229Z,1013.78
2017-04-18T03:03:09.475Z,1013.77
2017-04-18T03:04:19.408Z,1013.8
2017-04-18T03:05:29.336Z,1013.8
2017-04-18T03:06:39.582Z,1013.81
2017-04-18T03:07:49.821Z,1013.83
2017-04-18T03:09:00.066Z,1013.81
2017-04-18T03:10:09.988Z,1013.86
2017-04-18T03:11:19.913Z,1013.86
2017-04-18T03:12:30.151Z,1013.83
2017-04-18T03:13:40.417Z,1013.87
2017-04-18T03:14:50.671Z,1013.88
2017-04-18T03:16:00.914Z,1013.9
2017-04-18T03:17:11.156Z,1013.93
2017-04-18T03:18:21.082Z,1013.92
2017-04-18T03:19:31.014Z,1013.98
2017-04-18T03:20:41.256Z,1013.94
2017-04-18T03:21:51.500Z,1014
2017-04-18T03:23:01.138Z,1013.99
2017-04-18T03:24:11.062Z,1014.06
2017-04-18T03:25:21.304Z,1014.1
2017-04-18T03:26:31.545Z,1014.09
2017-04-18T03:27:41.785Z,1014.14
2017-04-18T03:28:52.033Z,1014.19
2017-04-18T03:30:02.270Z,1014.2
2017-04-18T03:31:12.511Z,1014.21
2017-04-18T03:32:22.753Z,1014.22
2017-04-18T03:33:33.046Z,1014.25
2017-04-18T03:34:43.057Z,1014.22
2017-04-18T03:35:53.572Z,1014.22
2017-04-18T03:37:03.818Z,1014.21
2017-04-18T03:38:13.282Z,1014.22
2017-04-18T03:39:23.527Z,1014.22
2017-04-18T03:40:33.768Z,1014.27
2017-04-18T03:41:44.014Z,1014.28
2017-04-18T03:42:54.278Z,1014.26
2017-04-18T03:44:04.212Z,1014.25
2017-04-18T03:45:14.464Z,1014.26
2017-04-18T03:46:24.701Z,1014.31
2017-04-18T03:47:34.624Z,1014.3
2017-04-18T03:48:44.874Z,1014.28
2017-04-18T03:49:54.806Z,1014.3
2017-04-18T03:51:05.055Z,1014.29
2017-04-18T03:52:15.300Z,1014.28
2017-04-18T03:53:25.542Z,1014.29
2017-04-18T03:54:35.159Z,1014.33
2017-04-18T03:55:45.396Z,1014.31
2017-04-18T03:56:55.319Z,1014.35
2017-04-18T03:58:05.266Z,1014.33
2017-04-18T03:59:15.509Z,1014.36
2017-04-18T04:00:25.441Z,1014.36
2017-04-18T04:01:35.371Z,1014.4
2017-04-18T04:02:45.607Z,1014.42
2017-04-18T04:03:55.844Z,1014.42
2017-04-18T04:05:05.776Z,1014.44
2017-04-18T04:06:16.011Z,1014.45
2017-04-18T04:07:26.259Z,1014.46
2017-04-18T04:08:35.870Z,1014.49
2017-04-18T04:09:46.113Z,1014.52
2017-04-18T04:10:56.038Z,1014.5
2017-04-18T04:12:06.288Z,1014.52
2017-04-18T04:13:16.211Z,1014.56
2017-04-18T04:14:26.142Z,1014.55
2017-04-18T04:15:35.788Z,1014.54
2017-04-18T04:16:46.040Z,1014.51
2017-04-18T04:17:55.963Z,1014.57
2017-04-18T04:19:05.898Z,1014.53
2017-04-18T04:20:15.879Z,1014.55
2017-04-18T04:21:26.117Z,1014.58
2017-04-18T04:22:36.362Z,1014.58
2017-04-18T04:23:46.607Z,1014.6
2017-04-18T04:24:56.849Z,1014.61
2017-04-18T04:26:06.788Z,1014.6
2017-04-18T04:27:16.403Z,1014.62
2017-04-18T04:28:26.329Z,1014.61
2017-04-18T04:29:35.636Z,1014.66
2017-04-18T04:30:45.560Z,1014.62
2017-04-18T04:31:55.489Z,1014.66
2017-04-18T04:33:05.421Z,1014.67
2017-04-18T04:34:15.664Z,1014.68
2017-04-18T04:35:25.913Z,1014.69
2017-04-18T04:36:36.159Z,1014.69
2017-04-18T04:37:46.401Z,1014.72
2017-04-18T04:38:56.637Z,1014.73
2017-04-18T04:40:06.560Z,1014.78
2017-04-18T04:41:16.799Z,1014.78
2017-04-18T04:42:27.045Z,1014.78
2017-04-18T04:43:36.970Z,1014.85
2017-04-18T04:44:47.214Z,1014.83
2017-04-18T04:45:57.139Z,1014.82
2017-04-18T04:47:07.381Z,1014.86
2017-04-18T04:48:17.614Z,1014.84
2017-04-18T04:49:27.542Z,1014.89
2017-04-18T04:50:37.158Z,1014.87
2017-04-18T04:51:47.395Z,1014.91
2017-04-18T04:52:57.333Z,1014.98
2017-04-18T04:54:07.266Z,1014.98
2017-04-18T04:55:17.198Z,1015
2017-04-18T04:56:27.434Z,1015.02
2017-04-18T04:57:37.364Z,1015.01
2017-04-18T04:58:47.604Z,1015.05
2017-04-18T04:59:57.252Z,1015.05
2017-04-18T05:01:07.181Z,1015.04
2017-04-18T05:02:17.437Z,1015.07
2017-04-18T05:03:27.044Z,1015.13
2017-04-18T05:04:37.284Z,1015.1
2017-04-18T05:05:47.360Z,1015.07
2017-04-18T05:06:56.966Z,1015.06
2017-04-18T05:08:07.219Z,1015.08
2017-04-18T05:09:17.463Z,1015.1
2017-04-18T05:10:27.712Z,1015.09
2017-04-18T05:11:37.953Z,1015.11
2017-04-18T05:12:47.899Z,1015.15
2017-04-18T05:13:58.154Z,1015.22
2017-04-18T05:15:08.178Z,1015.21
2017-04-18T05:16:18.421Z,1015.21
2017-04-18T05:17:28.656Z,1015.27
2017-04-18T05:18:38.925Z,1015.32
2017-04-18T05:19:49.169Z,1015.33
2017-04-18T05:20:59.409Z,1015.33
2017-04-18T05:22:09.649Z,1015.32
2017-04-18T05:23:19.577Z,1015.36
2017-04-18T05:24:28.875Z,1015.33
2017-04-18T05:25:39.117Z,1015.38
2017-04-18T05:26:49.056Z,1015.39
2017-04-18T05:27:59.300Z,1015.36
2017-04-18T05:29:09.232Z,1015.4
2017-04-18T05:30:19.479Z,1015.43
2017-04-18T05:31:29.437Z,1015.44
2017-04-18T05:32:39.358Z,1015.44
2017-04-18T05:33:49.602Z,1015.48
2017-04-18T05:34:59.864Z,1015.53
2017-04-18T05:36:10.107Z,1015.53
2017-04-18T05:37:20.344Z,1015.53
2017-04-18T05:38:30.273Z,1015.59
2017-04-18T05:39:40.210Z,1015.58
2017-04-18T05:40:50.453Z,1015.6
2017-04-18T05:42:00.692Z,1015.61
2017-04-18T05:43:10.929Z,1015.61
2017-04-18T05:44:21.180Z,1015.67
2017-04-18T05:45:31.423Z,1015.69
2017-04-18T05:46:41.666Z,1015.75
2017-04-18T05:47:51.908Z,1015.71
2017-04-18T05:49:02.148Z,1015.72
2017-04-18T05:50:12.077Z,1015.73
2017-04-18T05:51:21.694Z,1015.77
2017-04-18T05:52:31.308Z,1015.81
2017-04-18T05:53:41.548Z,1015.84
2017-04-18T05:54:51.791Z,1015.84
2017-04-18T05:56:02.028Z,1015.9
2017-04-18T05:57:12.277Z,1015.9
2017-04-18T05:58:21.891Z,1015.99
2017-04-18T05:59:31.813Z,1015.98
2017-04-18T06:00:42.050Z,1016.04
2017-04-18T06:01:51.984Z,1016.03
2017-04-18T06:03:01.594Z,1016.03
2017-04-18T06:04:11.836Z,1016.07
2017-04-18T06:05:22.078Z,1016.08
2017-04-18T06:06:32.003Z,1016.12
2017-04-18T06:07:42.241Z,1016.12
2017-04-18T06:08:52.180Z,1016.12
2017-04-18T06:10:02.422Z,1016.16
2017-04-18T06:11:12.890Z,1016.13
2017-04-18T06:12:22.506Z,1016.16
2017-04-18T06:13:32.747Z,1016.22
2017-04-18T06:14:42.736Z,1016.25
2017-04-18T06:15:52.739Z,1016.26
2017-04-18T06:17:03.005Z,1016.32
2017-04-18T06:18:12.615Z,1016.32
2017-04-18T06:19:22.546Z,1016.33
2017-04-18T06:20:32.787Z,1016.4
2017-04-18T06:21:42.462Z,1016.42
2017-04-18T06:22:52.790Z,1016.39
2017-04-18T06:24:03.030Z,1016.39
2017-04-18T06:25:13.267Z,1016.37
2017-04-18T06:26:23.509Z,1016.46
2017-04-18T06:27:33.751Z,1016.46
2017-04-18T06:28:43.683Z,1016.51
2017-04-18T06:29:53.607Z,1016.47
2017-04-18T06:31:02.910Z,1016.46
2017-04-18T06:32:12.836Z,1016.5
2017-04-18T06:33:23.072Z,1016.5
2017-04-18T06:34:33.314Z,1016.49
2017-04-18T06:35:43.555Z,1016.49
2017-04-18T06:36:53.474Z,1016.48
2017-04-18T06:38:03.404Z,1016.48
2017-04-18T06:39:13.018Z,1016.45
2017-04-18T06:40:22.945Z,1016.5
2017-04-18T06:41:33.185Z,1016.52
2017-04-18T06:42:43.103Z,1016.55
2017-04-18T06:43:53.029Z,1016.56
2017-04-18T06:45:03.266Z,1016.57
2017-04-18T06:46:13.503Z,1016.68
2017-04-18T06:47:23.743Z,1016.65
2017-04-18T06:48:33.374Z,1016.65
2017-04-18T06:49:43.312Z,1016.73
2017-04-18T06:50:53.241Z,1016.74
2017-04-18T06:52:03.482Z,1016.74
2017-04-18T06:53:12.471Z,1016.8
2017-04-18T06:54:22.706Z,1016.81
2017-04-18T06:55:32.630Z,1016.83
2017-04-18T06:56:42.562Z,1016.81
2017-04-18T06:57:52.489Z,1016.85
2017-04-18T06:59:02.421Z,1016.85
2017-04-18T07:00:12.663Z,1016.83
2017-04-18T07:01:22.596Z,1016.83
2017-04-18T07:02:31.267Z,1016.89
2017-04-18T07:03:40.883Z,1016.85
2017-04-18T07:04:50.808Z,1016.88
2017-04-18T07:06:01.077Z,1016.91
2017-04-18T07:07:11.318Z,1016.95
2017-04-18T07:08:20.939Z,1016.92
2017-04-18T07:09:30.995Z,1017
2017-04-18T07:10:41.236Z,1017
2017-04-18T07:11:51.488Z,1017.01
2017-04-18T07:13:00.206Z,1017.11
2017-04-18T07:14:09.847Z,1017.06
2017-04-18T07:15:20.218Z,1017.12
2017-04-18T07:16:29.825Z,1017.15
2017-04-18T07:17:40.310Z,1017.16
2017-04-18T07:18:50.815Z,1017.14
2017-04-18T07:20:00.748Z,1017.16
2017-04-18T07:21:10.672Z,1017.18
2017-04-18T07:22:20.292Z,1017.19
2017-04-18T07:23:28.966Z,1017.24
2017-04-18T07:24:38.269Z,1017.21
2017-04-18T07:25:48.198Z,1017.26
2017-04-18T07:26:57.814Z,1017.27
2017-04-18T07:28:08.056Z,1017.31
2017-04-18T07:29:17.990Z,1017.36
2017-04-18T07:30:28.237Z,1017.41
2017-04-18T07:31:38.169Z,1017.4
2017-04-18T07:32:47.156Z,1017.42
2017-04-18T07:33:56.160Z,1017.44
2017-04-18T07:35:05.152Z,1017.47
2017-04-18T07:36:14.806Z,1017.46
2017-04-18T07:37:25.051Z,1017.49
2017-04-18T07:38:34.681Z,1017.53
2017-04-18T07:39:44.617Z,1017.5
2017-04-18T07:40:54.226Z,1017.55
2017-04-18T07:42:03.841Z,1017.61
2017-04-18T07:43:12.510Z,1017.59
2017-04-18T07:44:21.499Z,1017.64
2017-04-18T07:45:30.175Z,1017.66
2017-04-18T07:46:39.165Z,1017.65
2017-04-18T07:47:48.476Z,1017.67
2017-04-18T07:48:58.719Z,1017.69
2017-04-18T07:50:08.970Z,1017.73
2017-04-18T07:51:18.590Z,1017.68
2017-04-18T07:52:27.887Z,1017.76
2017-04-18T07:53:36.881Z,1017.74
2017-04-18T07:54:46.266Z,1017.76
2017-04-18T07:55:55.563Z,1017.77
2017-04-18T07:57:04.236Z,1017.78
2017-04-18T07:58:13.222Z,1017.82
2017-04-18T07:59:23.150Z,1017.83
2017-04-18T08:00:33.081Z,1017.87
2017-04-18T08:01:43.011Z,1017.86
2017-04-18T08:02:53.010Z,1017.87
2017-04-18T08:04:03.248Z,1017.92
2017-04-18T08:05:12.865Z,1017.93
2017-04-18T08:06:22.797Z,1017.94
2017-04-18T08:07:32.946Z,1017.96
2017-04-18T08:08:42.904Z,1017.96
2017-04-18T08:09:52.838Z,1017.96
2017-04-18T08:11:02.460Z,1017.97
2017-04-18T08:12:12.392Z,1018.02
2017-04-18T08:13:22.636Z,1018.03
2017-04-18T08:14:32.253Z,1018.07
2017-04-18T08:15:41.886Z,1018
2017-04-18T08:16:51.819Z,1018.04
2017-04-18T08:18:01.751Z,1018.05
2017-04-18T08:19:11.675Z,1018.08
2017-04-18T08:20:21.603Z,1018.12
2017-04-18T08:21:31.220Z,1018.1
2017-04-18T08:22:41.150Z,1018.14
2017-04-18T08:23:50.762Z,1018.15
2017-04-18T08:25:00.383Z,1018.19
2017-04-18T08:26:10.627Z,1018.2
2017-04-18T08:27:20.556Z,1018.23
2017-04-18T08:28:30.480Z,1018.25
2017-04-18T08:29:40.721Z,1018.21
2017-04-18T08:30:50.341Z,1018.23
2017-04-18T08:32:00.262Z,1018.2
2017-04-18T08:33:10.506Z,1018.24
2017-04-18T08:34:20.450Z,1018.26
2017-04-18T08:35:30.687Z,1018.26
2017-04-18T08:36:40.628Z,1018.26
2017-04-18T08:37:49.987Z,1018.24
2017-04-18T08:38:59.600Z,1018.3
2017-04-18T08:40:09.840Z,1018.37
2017-04-18T08:41:19.454Z,1018.37
2017-04-18T08:42:29.727Z,1018.37
2017-04-18T08:43:39.661Z,1018.41
2017-04-18T08:44:49.598Z,1018.42
2017-04-18T08:45:59.211Z,1018.42
2017-04-18T08:47:08.822Z,1018.42
2017-04-18T08:48:19.068Z,1018.45
2017-04-18T08:49:28.996Z,1018.5
2017-04-18T08:50:39.234Z,1018.51
2017-04-18T08:51:49.475Z,1018.48
2017-04-18T08:52:59.399Z,1018.53
2017-04-18T08:54:08.701Z,1018.53
2017-04-18T08:55:18.415Z,1018.58
2017-04-18T08:56:27.414Z,1018.59
2017-04-18T08:57:36.404Z,1018.58
2017-04-18T08:58:46.012Z,1018.62
2017-04-18T08:59:55.631Z,1018.63
2017-04-18T09:01:05.878Z,1018.63
2017-04-18T09:02:15.802Z,1018.63
2017-04-18T09:03:25.104Z,1018.64
2017-04-18T09:04:34.718Z,1018.67
2017-04-18T09:05:44.951Z,1018.7
2017-04-18T09:06:55.196Z,1018.73
2017-04-18T09:08:05.129Z,1018.74
2017-04-18T09:09:15.051Z,1018.74
2017-04-18T09:10:24.979Z,1018.77
2017-04-18T09:11:34.593Z,1018.78
2017-04-18T09:12:44.846Z,1018.82
2017-04-18T09:13:54.147Z,1018.8
2017-04-18T09:15:04.148Z,1018.83
2017-04-18T09:16:14.112Z,1018.83
2017-04-18T09:17:23.723Z,1018.89
2017-04-18T09:18:33.967Z,1018.88
2017-04-18T09:19:44.210Z,1018.85
2017-04-18T09:20:54.136Z,1018.85
2017-04-18T09:22:04.062Z,1018.81
2017-04-18T09:23:14.311Z,1018.82
2017-04-18T09:24:24.237Z,1018.82
2017-04-18T09:25:34.167Z,1018.83
2017-04-18T09:26:43.781Z,1018.86
2017-04-18T09:27:53.396Z,1018.91
2017-04-18T09:29:02.737Z,1018.9
2017-04-18T09:30:12.977Z,1018.93
2017-04-18T09:31:22.926Z,1018.96
2017-04-18T09:32:32.853Z,1018.94
2017-04-18T09:33:42.786Z,1019.03
2017-04-18T09:34:53.033Z,1019.03
2017-04-18T09:36:03.280Z,1019.04
2017-04-18T09:37:12.580Z,1019.02
2017-04-18T09:38:22.198Z,1019
2017-04-18T09:39:31.813Z,1019
2017-04-18T09:40:41.744Z,1019.07
2017-04-18T09:41:51.670Z,1019.12
2017-04-18T09:43:01.908Z,1019.09
2017-04-18T09:44:12.149Z,1019.12
2017-04-18T09:45:22.396Z,1019.11
2017-04-18T09:46:31.695Z,1019.18
2017-04-18T09:47:41.620Z,1019.09
2017-04-18T09:48:51.236Z,1019.17
2017-04-18T09:50:01.488Z,1019.12
2017-04-18T09:51:11.102Z,1019.14
2017-04-18T09:52:20.709Z,1019.16
2017-04-18T09:53:30.979Z,1019.19
2017-04-18T09:54:40.912Z,1019.17
2017-04-18T09:55:50.526Z,1019.14
2017-04-18T09:57:00.136Z,1019.15
2017-04-18T09:58:10.375Z,1019.25
2017-04-18T09:59:20.318Z,1019.28
2017-04-18T10:00:30.556Z,1019.31
2017-04-18T10:01:40.479Z,1019.27
2017-04-18T10:02:50.716Z,1019.24
2017-04-18T10:04:00.958Z,1019.25
2017-04-18T10:05:10.888Z,1019.22
2017-04-18T10:06:20.817Z,1019.26
2017-04-18T10:07:30.435Z,1019.27
2017-04-18T10:08:40.366Z,1019.33
2017-04-18T10:09:50.605Z,1019.35
2017-04-18T10:11:00.552Z,1019.38
2017-04-18T10:12:10.789Z,1019.36
2017-04-18T10:13:21.026Z,1019.33
2017-04-18T10:14:30.336Z,1019.36
2017-04-18T10:15:40.262Z,1019.34
2017-04-18T10:16:50.214Z,1019.33
2017-04-18T10:18:00.139Z,1019.28
2017-04-18T10:19:10.113Z,1019.29
2017-04-18T10:20:20.091Z,1019.33
2017-04-18T10:21:30.259Z,1019.28
2017-04-18T10:22:39.893Z,1019.35
2017-04-18T10:23:49.505Z,1019.31
2017-04-18T10:24:59.431Z,1019.32
2017-04-18T10:26:09.672Z,1019.3
2017-04-18T10:27:19.623Z,1019.41
2017-04-18T10:28:29.261Z,1019.38
2017-04-18T10:29:39.502Z,1019.34
2017-04-18T10:30:49.743Z,1019.39
2017-04-18T10:31:59.359Z,1019.34
2017-04-18T10:33:09.597Z,1019.34
2017-04-18T10:34:19.841Z,1019.36
2017-04-18T10:35:29.459Z,1019.4
2017-04-18T10:36:39.388Z,1019.41
2017-04-18T10:37:49.313Z,1019.37
2017-04-18T10:38:59.558Z,1019.34
2017-04-18T10:40:09.168Z,1019.38
2017-04-18T10:41:18.786Z,1019.4
2017-04-18T10:42:29.034Z,1019.42
2017-04-18T10:43:39.267Z,1019.37
2017-04-18T10:44:49.201Z,1019.39
2017-04-18T10:45:58.817Z,1019.4
2017-04-18T10:47:09.064Z,1019.4
2017-04-18T10:48:18.048Z,1019.39
2017-04-18T10:49:27.987Z,1019.35
2017-04-18T10:50:37.924Z,1019.46
2017-04-18T10:51:47.853Z,1019.53
2017-04-18T10:52:57.775Z,1019.53
2017-04-18T10:54:08.023Z,1019.53
2017-04-18T10:55:17.952Z,1019.53
2017-04-18T10:56:28.193Z,1019.5
2017-04-18T10:57:38.193Z,1019.47
2017-04-18T10:58:48.094Z,1019.46
2017-04-18T10:59:57.666Z,1019.45
2017-04-18T11:01:07.603Z,1019.45
2017-04-18T11:02:17.843Z,1019.53
2017-04-18T11:03:27.145Z,1019.57
2017-04-18T11:04:37.076Z,1019.52
2017-04-18T11:05:47.006Z,1019.49
2017-04-18T11:06:57.248Z,1019.5
2017-04-18T11:08:07.519Z,1019.52
2017-04-18T11:09:17.140Z,1019.57
2017-04-18T11:10:26.440Z,1019.58
2017-04-18T11:11:36.363Z,1019.52
2017-04-18T11:12:45.354Z,1019.52
2017-04-18T11:13:55.296Z,1019.55
2017-04-18T11:15:04.911Z,1019.56
2017-04-18T11:16:14.835Z,1019.63
2017-04-18T11:17:24.761Z,1019.57
2017-04-18T11:18:35.004Z,1019.61
2017-04-18T11:19:44.618Z,1019.55
2017-04-18T11:20:54.235Z,1019.58
2017-04-18T11:22:04.486Z,1019.57
2017-04-18T11:23:14.097Z,1019.6
2017-04-18T11:24:24.337Z,1019.62
2017-04-18T11:25:34.576Z,1019.69
2017-04-18T11:26:44.823Z,1019.75
2017-04-18T11:27:54.435Z,1019.64
2017-04-18T11:29:04.359Z,1019.71
2017-04-18T11:30:13.357Z,1019.74
2017-04-18T11:31:22.972Z,1019.66
2017-04-18T11:32:33.218Z,1019.71
2017-04-18T11:33:43.154Z,1019.77
2017-04-18T11:34:53.401Z,1019.7
2017-04-18T11:36:02.701Z,1019.71
2017-04-18T11:37:12.660Z,1019.68
2017-04-18T11:38:22.402Z,1019.8
2017-04-18T11:39:32.331Z,1019.76
2017-04-18T11:40:42.255Z,1019.77
2017-04-18T11:41:51.911Z,1019.79
2017-04-18T11:43:01.838Z,1019.84
2017-04-18T11:44:11.769Z,1019.83
2017-04-18T11:45:21.702Z,1019.87
2017-04-18T11:46:31.629Z,1019.9
2017-04-18T11:47:41.878Z,1019.91
2017-04-18T11:48:51.494Z,1019.93
2017-04-18T11:50:01.748Z,1019.9
2017-04-18T11:51:11.993Z,1019.94
2017-04-18T11:52:21.610Z,1019.88
2017-04-18T11:53:31.537Z,1019.92
2017-04-18T11:54:41.466Z,1020.01
2017-04-18T11:55:51.432Z,1020.04
2017-04-18T11:57:01.357Z,1020
2017-04-18T11:58:11.285Z,1020.02
2017-04-18T11:59:20.592Z,1020.04
2017-04-18T12:00:30.526Z,1020
2017-04-18T12:01:40.447Z,1019.96
2017-04-18T12:02:50.699Z,1020.05
2017-04-18T12:04:00.322Z,1020.02
2017-04-18T12:05:10.573Z,1020.07
2017-04-18T12:06:19.880Z,1020.08
2017-04-18T12:07:30.119Z,1020.05
2017-04-18T12:08:40.042Z,1020.02
2017-04-18T12:09:49.345Z,1020.02
2017-04-18T12:10:59.269Z,1020.03
2017-04-18T12:12:08.896Z,1020.09
2017-04-18T12:13:18.631Z,1020.06
2017-04-18T12:14:28.688Z,1020.06
2017-04-18T12:15:38.620Z,1020
2017-04-18T12:16:48.594Z,1020.09
2017-04-18T12:17:59.009Z,1020.03
2017-04-18T12:19:08.310Z,1020.07
2017-04-18T12:20:18.029Z,1020.08
2017-04-18T12:21:27.957Z,1020.11
2017-04-18T12:22:38.195Z,1020.02
2017-04-18T12:23:48.122Z,1020.08
2017-04-18T12:24:58.355Z,1020.07
2017-04-18T12:26:07.964Z,1020.06
2017-04-18T12:27:17.892Z,1020.17
2017-04-18T12:28:27.821Z,1020.16
2017-04-18T12:29:37.438Z,1020.18
2017-04-18T12:30:47.363Z,1020.13
2017-04-18T12:31:57.604Z,1020.16
2017-04-18T12:33:06.902Z,1020.16
2017-04-18T12:34:16.827Z,1020.25
2017-04-18T12:35:26.767Z,1020.15
2017-04-18T12:36:37.014Z,1020.17
2017-04-18T12:37:46.943Z,1020.16
2017-04-18T12:38:56.874Z,1020.14
2017-04-18T12:40:07.094Z,1020.19
2017-04-18T12:41:17.021Z,1020.2
2017-04-18T12:42:26.958Z,1020.19
2017-04-18T12:43:36.885Z,1020.21
2017-04-18T12:44:47.118Z,1020.2
2017-04-18T12:45:56.420Z,1020.24
2017-04-18T12:47:06.351Z,1020.22
2017-04-18T12:48:15.963Z,1020.28
2017-04-18T12:49:25.268Z,1020.31
2017-04-18T12:50:34.975Z,1020.32
2017-04-18T12:51:44.899Z,1020.28
2017-04-18T12:52:54.831Z,1020.32
2017-04-18T12:54:04.450Z,1020.41
2017-04-18T12:55:14.687Z,1020.4
2017-04-18T12:56:24.636Z,1020.48
2017-04-18T12:57:34.262Z,1020.49
2017-04-18T12:58:43.559Z,1020.55
2017-04-18T12:59:53.170Z,1020.46
2017-04-18T13:01:02.474Z,1020.58
2017-04-18T13:02:12.085Z,1020.6
2017-04-18T13:03:21.387Z,1020.62
2017-04-18T13:04:31.635Z,1020.62
2017-04-18T13:05:41.582Z,1020.63
2017-04-18T13:06:50.880Z,1020.63
2017-04-18T13:08:01.118Z,1020.61
2017-04-18T13:09:11.050Z,1020.62
2017-04-18T13:10:20.342Z,1020.67
2017-04-18T13:11:29.329Z,1020.65
2017-04-18T13:12:39.569Z,1020.71
2017-04-18T13:13:48.565Z,1020.61
2017-04-18T13:14:58.520Z,1020.64
2017-04-18T13:16:08.752Z,1020.63
2017-04-18T13:17:18.051Z,1020.61
2017-04-18T13:18:28.287Z,1020.62
2017-04-18T13:19:37.912Z,1020.65
2017-04-18T13:20:47.999Z,1020.66
2017-04-18T13:21:57.658Z,1020.62
2017-04-18T13:23:07.273Z,1020.62
2017-04-18T13:24:16.681Z,1020.65
2017-04-18T13:25:26.599Z,1020.67
2017-04-18T13:26:36.522Z,1020.65
2017-04-18T13:27:46.455Z,1020.61
2017-04-18T13:28:56.378Z,1020.67
2017-04-18T13:30:06.309Z,1020.59
2017-04-18T13:31:16.233Z,1020.59
2017-04-18T13:32:25.847Z,1020.62
2017-04-18T13:33:35.152Z,1020.63
2017-04-18T13:34:44.147Z,1020.58
2017-04-18T13:35:54.067Z,1020.56
2017-04-18T13:37:03.686Z,1020.65
2017-04-18T13:38:13.611Z,1020.59
2017-04-18T13:39:23.848Z,1020.61
2017-04-18T13:40:33.470Z,1020.64
2017-04-18T13:41:43.713Z,1020.58
2017-04-18T13:42:53.950Z,1020.62
2017-04-18T13:44:02.937Z,1020.64
2017-04-18T13:45:12.256Z,1020.64
2017-04-18T13:46:20.948Z,1020.67
2017-04-18T13:47:30.575Z,1020.69
2017-04-18T13:48:40.186Z,1020.73
2017-04-18T13:49:49.798Z,1020.73
2017-04-18T13:50:59.721Z,1020.92
2017-04-18T13:52:09.966Z,1021.06
2017-04-18T13:53:18.955Z,1021.04
2017-04-18T13:54:27.951Z,1021.07
2017-04-18T13:55:36.947Z,1021.18
2017-04-18T13:56:45.941Z,1021.16
2017-04-18T13:57:55.339Z,1021.16
2017-04-18T13:59:05.261Z,1021.19
2017-04-18T14:00:15.189Z,1021.2
2017-04-18T14:01:25.428Z,1021.19
2017-04-18T14:02:35.688Z,1021.23
2017-04-18T14:03:44.674Z,1021.2
2017-04-18T14:04:53.976Z,1021.34
2017-04-18T14:06:03.605Z,1021.28
2017-04-18T14:07:13.215Z,1021.29
2017-04-18T14:08:22.224Z,1021.3
2017-04-18T14:09:31.865Z,1021.3